Time;durP1;ratioP1;P1;durP2;ratioP2;P2;SDS_P1;SDS_P2;PMS_P1;PMS_P2;Temp;Humidity;BMP_temperature;BMP_pressure;BME280_temperature;BME280_humidity;BME280_pressure;Samples;Min_cycle;Max_cycle;Signal;HPM_P1;HPM_P2
2022/11/09 00:01:41;;;;;;;34.60;16.30;;;;;;;7.18;72.67;99206.59;103529;1291;97974;-69
2022/11/09 00:04:13;;;;;;;28.30;15.10;;;;;;;7.17;72.61;99207.34;103379;1291;95529;-69
2022/11/09 00:06:40;;;;;;;29.20;14.90;;;;;;;7.18;72.62;99208.75;103544;1292;111401;-69
2022/11/09 00:09:10;;;;;;;33.40;16.50;;;;;;;7.18;72.68;99208.39;103568;1296;97891;-70
2022/11/09 00:11:38;;;;;;;29.70;15.40;;;;;;;7.17;72.47;99207.38;103527;1292;108078;-69
2022/11/09 00:14:06;;;;;;;30.90;15.10;;;;;;;7.16;72.57;99199.86;103509;1298;98594;-70
2022/11/09 00:16:34;;;;;;;29.70;14.70;;;;;;;7.16;72.61;99203.20;103534;1298;97780;-69
2022/11/09 00:19:01;;;;;;;30.00;15.20;;;;;;;7.15;72.84;99203.25;103529;1295;111723;-70
2022/11/09 00:21:33;;;;;;;29.70;15.00;;;;;;;7.14;72.78;99200.66;103343;1300;96481;-71
2022/11/09 00:24:01;;;;;;;28.60;14.30;;;;;;;7.13;72.92;99201.95;103546;1291;108043;-70
2022/11/09 00:26:29;;;;;;;28.30;15.70;;;;;;;7.12;72.91;99202.70;103567;1292;97974;-70
2022/11/09 00:28:57;;;;;;;29.10;14.80;;;;;;;7.10;73.06;99203.50;103385;1297;95228;-69
2022/11/09 00:31:28;;;;;;;29.90;15.30;;;;;;;7.10;72.99;99202.11;103221;1296;111130;-69
2022/11/09 00:34:00;;;;;;;29.70;14.20;;;;;;;7.09;72.86;99198.28;103570;1290;97902;-70
2022/11/09 00:36:31;;;;;;;31.20;13.30;;;;;;;7.10;72.87;99202.14;103561;1291;107570;-69
2022/11/09 00:39:03;;;;;;;30.60;14.60;;;;;;;7.09;72.87;99197.58;103537;1298;96940;-69
2022/11/09 00:41:31;;;;;;;28.70;14.20;;;;;;;7.08;72.87;99196.03;103544;1296;97896;-69
2022/11/09 00:43:59;;;;;;;31.00;15.00;;;;;;;7.07;73.03;99201.91;103491;1296;111437;-69
2022/11/09 00:46:30;;;;;;;30.20;15.10;;;;;;;7.07;72.89;99200.88;103561;1290;98020;-69
2022/11/09 00:49:01;;;;;;;30.30;14.60;;;;;;;7.07;73.03;99205.25;103536;1298;108148;-68
2022/11/09 00:51:29;;;;;;;28.10;13.20;;;;;;;7.07;73.03;99201.21;103560;1298;97943;-68
2022/11/09 00:54:00;;;;;;;29.60;16.00;;;;;;;7.06;73.25;99200.23;103349;1293;97867;-68
2022/11/09 00:56:28;;;;;;;29.00;14.60;;;;;;;7.05;73.21;99201.50;103517;1291;111763;-68
2022/11/09 00:58:56;;;;;;;30.90;15.50;;;;;;;7.05;73.06;99203.10;103391;1301;97827;-70
2022/11/09 01:01:30;;;;;;;28.40;13.30;;;;;;;7.05;73.17;99202.07;103362;1287;106729;-71
2022/11/09 01:03:58;;;;;;;29.60;14.20;;;;;;;7.04;73.36;99199.11;103475;1291;96415;-69
2022/11/09 01:06:32;;;;;;;29.30;14.10;;;;;;;7.03;73.15;99197.38;103521;1298;98006;-69
2022/11/09 01:09:01;;;;;;;27.00;13.50;;;;;;;7.02;73.18;99199.91;103536;1293;111592;-70
2022/11/09 01:11:32;;;;;;;28.80;13.90;;;;;;;7.01;73.26;99199.41;103508;1298;97892;-70
2022/11/09 01:14:01;;;;;;;30.20;15.00;;;;;;;7.01;73.17;99200.48;103494;1299;108195;-69
2022/11/09 01:16:29;;;;;;;28.00;13.80;;;;;;;7.00;73.12;99196.29;103568;1298;97002;-69
2022/11/09 01:19:00;;;;;;;28.80;14.70;;;;;;;7.01;73.20;99193.79;103549;1297;97853;-70
2022/11/09 01:21:28;;;;;;;30.40;15.00;;;;;;;6.99;73.29;99189.64;103524;1294;111350;-71
2022/11/09 01:23:57;;;;;;;29.50;14.40;;;;;;;6.99;73.27;99188.40;103553;1298;97972;-70
2022/11/09 01:26:29;;;;;;;28.90;14.40;;;;;;;6.98;73.22;99191.11;103536;1296;107572;-69
2022/11/09 01:28:58;;;;;;;30.00;14.50;;;;;;;6.97;73.27;99189.21;103456;1296;95195;-69
2022/11/09 01:31:26;;;;;;;31.20;15.00;;;;;;;6.97;73.36;99188.17;103539;1292;97994;-69
2022/11/09 01:33:54;;;;;;;26.80;13.60;;;;;;;6.98;73.33;99188.50;103511;1290;111764;-70
2022/11/09 01:36:23;;;;;;;29.80;13.60;;;;;;;6.98;73.54;99183.57;103349;1298;97934;-71
2022/11/09 01:38:51;;;;;;;29.90;15.10;;;;;;;6.98;73.41;99183.55;103538;1298;107554;-70
2022/11/09 01:41:23;;;;;;;30.00;14.40;;;;;;;6.98;73.34;99182.15;103533;1291;97965;-69
2022/11/09 01:44:20;;;;;;;28.90;13.70;;;;;;;6.98;73.33;99178.59;103510;1298;97928;-69
2022/11/09 01:47:25;;;;;;;28.60;13.20;;;;;;;6.98;73.58;99176.14;103449;1297;111306;-69
2022/11/09 01:49:58;;;;;;;28.80;14.40;;;;;;;6.97;73.54;99173.58;103221;1305;97971;-69
2022/11/09 01:52:41;;;;;;;29.50;13.50;;;;;;;6.96;73.53;99174.30;103420;1298;108048;-69
2022/11/09 01:55:17;;;;;;;27.90;13.10;;;;;;;6.96;73.49;99175.57;103391;1291;98445;-69
2022/11/09 01:57:59;;;;;;;25.80;12.80;;;;;;;6.97;73.65;99173.73;103424;1292;97861;-70
2022/11/09 02:00:28;;;;;;;28.10;13.90;;;;;;;6.98;73.58;99172.80;103392;1290;111669;-69
2022/11/09 02:03:14;;;;;;;27.70;13.30;;;;;;;6.97;73.52;99172.98;103403;1292;97855;-70
2022/11/09 02:05:43;;;;;;;28.90;13.60;;;;;;;6.96;73.71;99170.80;103516;1296;108326;-68
2022/11/09 02:08:15;;;;;;;28.20;13.30;;;;;;;6.94;73.62;99171.59;103439;1298;96462;-70
2022/11/09 02:10:48;;;;;;;28.60;12.40;;;;;;;6.93;73.60;99168.14;103246;1298;98073;-68
2022/11/09 02:13:19;;;;;;;27.80;13.60;;;;;;;6.92;73.81;99169.95;103420;1291;111848;-68
2022/11/09 02:15:48;;;;;;;27.00;13.80;;;;;;;6.92;73.59;99166.61;103274;1293;95191;-68
2022/11/09 02:18:16;;;;;;;28.30;12.90;;;;;;;6.89;73.74;99166.80;103491;1293;107752;-69
2022/11/09 02:20:56;;;;;;;28.80;14.30;;;;;;;6.88;73.74;99165.11;103403;1283;97898;-68
2022/11/09 02:23:26;;;;;;;26.90;13.50;;;;;;;6.86;73.83;99168.02;103405;1292;97963;-68
2022/11/09 02:25:59;;;;;;;28.90;13.00;;;;;;;6.86;73.86;99170.13;103430;1292;111021;-68
2022/11/09 02:28:27;;;;;;;29.30;14.40;;;;;;;6.88;73.70;99171.09;103376;1294;97706;-68
2022/11/09 02:30:56;;;;;;;28.20;14.00;;;;;;;6.89;73.84;99168.23;103447;1290;107554;-69
2022/11/09 02:33:24;;;;;;;29.10;13.50;;;;;;;6.88;73.93;99169.29;103428;1297;97952;-69
2022/11/09 02:35:52;;;;;;;28.90;14.00;;;;;;;6.87;73.78;99168.98;103409;1298;97852;-69
2022/11/09 02:38:20;;;;;;;28.30;13.40;;;;;;;6.86;73.91;99166.23;103450;1298;111497;-70
2022/11/09 02:40:50;;;;;;;27.10;12.70;;;;;;;6.88;73.87;99172.86;103379;1297;97874;-68
2022/11/09 02:43:18;;;;;;;27.10;12.70;;;;;;;6.88;73.98;99172.46;103383;1298;107042;-68
2022/11/09 02:45:46;;;;;;;27.00;12.70;;;;;;;6.91;74.23;99168.63;103424;1298;97858;-69
2022/11/09 02:48:14;;;;;;;26.70;12.80;;;;;;;6.94;74.26;99165.63;103400;1290;98444;-69
2022/11/09 02:50:42;;;;;;;28.60;13.50;;;;;;;6.97;74.05;99168.27;103431;1298;111418;-69
2022/11/09 02:53:10;;;;;;;28.00;12.50;;;;;;;6.99;73.97;99166.36;103467;1290;98467;-70
2022/11/09 02:55:38;;;;;;;31.00;13.50;;;;;;;7.01;74.08;99166.10;103433;1298;108111;-70
2022/11/09 02:58:05;;;;;;;27.80;12.90;;;;;;;7.02;74.18;99171.36;103547;1290;97850;-69
2022/11/09 03:00:33;;;;;;;27.80;13.00;;;;;;;7.02;74.21;99165.88;103419;1298;97833;-70
2022/11/09 03:03:03;;;;;;;27.90;12.70;;;;;;;7.03;73.91;99170.24;103439;1297;111291;-69
2022/11/09 03:05:31;;;;;;;26.70;13.80;;;;;;;7.03;73.99;99165.11;103474;1292;96499;-70
2022/11/09 03:08:01;;;;;;;27.50;12.80;;;;;;;7.04;74.11;99170.35;103425;1290;107702;-70
2022/11/09 03:10:29;;;;;;;27.20;13.10;;;;;;;7.05;74.08;99174.71;103452;1291;95536;-69
2022/11/09 03:12:57;;;;;;;26.40;12.50;;;;;;;7.03;74.17;99173.74;103536;1284;97852;-69
2022/11/09 03:15:24;;;;;;;28.30;13.40;;;;;;;7.04;74.07;99175.14;103433;1298;111270;-70
2022/11/09 03:17:52;;;;;;;26.60;11.90;;;;;;;7.05;74.23;99178.95;103466;1299;97776;-69
2022/11/09 03:20:20;;;;;;;27.70;13.20;;;;;;;7.07;74.22;99182.86;103466;1295;107355;-69
2022/11/09 03:22:47;;;;;;;29.50;12.90;;;;;;;7.09;74.18;99180.83;103482;1290;95206;-69
2022/11/09 03:25:15;;;;;;;26.70;13.10;;;;;;;7.10;74.30;99184.14;103559;1290;96205;-69
2022/11/09 03:27:43;;;;;;;25.20;11.40;;;;;;;7.10;74.03;99179.17;103416;1290;111560;-69
2022/11/09 03:30:11;;;;;;;26.70;12.00;;;;;;;7.12;74.24;99181.04;103497;1284;95202;-69
2022/11/09 03:32:39;;;;;;;26.00;12.10;;;;;;;7.13;74.40;99179.86;103527;1291;107716;-69
2022/11/09 03:35:08;;;;;;;29.40;13.60;;;;;;;7.15;74.22;99184.20;103520;1292;95250;-68
2022/11/09 03:37:35;;;;;;;26.20;13.20;;;;;;;7.15;74.44;99181.71;103472;1298;97952;-69
2022/11/09 03:40:04;;;;;;;25.60;11.30;;;;;;;7.16;74.19;99179.20;103363;1290;111814;-69
2022/11/09 03:42:32;;;;;;;24.60;11.30;;;;;;;7.15;74.47;99174.32;103414;1290;95127;-69
2022/11/09 03:44:59;;;;;;;25.70;11.90;;;;;;;7.15;74.33;99171.48;103384;1291;107979;-69
2022/11/09 03:47:27;;;;;;;27.30;12.10;;;;;;;7.14;74.35;99165.73;103438;1291;95160;-69
2022/11/09 03:49:55;;;;;;;28.50;12.70;;;;;;;7.14;74.37;99165.34;103464;1291;98517;-69
2022/11/09 03:52:23;;;;;;;26.00;12.00;;;;;;;7.15;74.33;99164.41;103444;1291;112303;-71
2022/11/09 03:54:50;;;;;;;23.90;10.50;;;;;;;7.15;74.32;99163.00;103509;1298;97761;-70
2022/11/09 03:57:18;;;;;;;24.90;10.70;;;;;;;7.16;74.56;99164.54;103473;1298;108243;-70
2022/11/09 03:59:46;;;;;;;26.50;11.20;;;;;;;7.17;74.59;99161.67;103392;1298;97862;-70
2022/11/09 04:02:14;;;;;;;25.90;11.50;;;;;;;7.19;74.49;99156.13;103537;1295;97847;-70
2022/11/09 04:04:41;;;;;;;22.90;9.60;;;;;;;7.20;74.63;99156.55;103486;1285;111068;-71
2022/11/09 04:07:10;;;;;;;26.40;11.70;;;;;;;7.22;74.36;99148.90;103452;1290;95147;-70
2022/11/09 04:09:38;;;;;;;23.50;9.80;;;;;;;7.23;74.47;99153.20;103508;1290;107180;-70
2022/11/09 04:12:06;;;;;;;22.90;10.50;;;;;;;7.25;74.57;99151.86;103455;1291;97810;-70
2022/11/09 04:14:34;;;;;;;23.70;10.10;;;;;;;7.27;74.57;99151.42;103366;1298;97995;-70
2022/11/09 04:17:01;;;;;;;25.40;11.30;;;;;;;7.27;74.51;99150.54;103413;1291;111888;-70
2022/11/09 04:19:29;;;;;;;21.90;9.90;;;;;;;7.28;74.49;99151.52;103497;1292;95270;-68
2022/11/09 04:21:57;;;;;;;23.30;10.60;;;;;;;7.29;74.44;99152.89;103370;1298;107331;-72
2022/11/09 04:24:25;;;;;;;21.90;9.80;;;;;;;7.29;74.52;99151.10;103343;1291;97982;-70
2022/11/09 04:26:52;;;;;;;26.30;10.50;;;;;;;7.30;74.62;99147.86;103464;1290;97913;-69
2022/11/09 04:29:20;;;;;;;26.80;11.80;;;;;;;7.32;74.61;99148.85;103484;1290;111595;-70
2022/11/09 04:31:49;;;;;;;25.40;10.60;;;;;;;7.34;74.68;99151.19;103471;1291;98274;-69
2022/11/09 04:34:17;;;;;;;23.90;9.60;;;;;;;7.35;74.59;99149.55;103475;1292;108179;-69
2022/11/09 04:36:53;;;;;;;22.60;9.20;;;;;;;7.34;74.59;99145.88;103481;1298;97901;-69
2022/11/09 04:39:21;;;;;;;22.10;9.70;;;;;;;7.33;74.57;99146.48;103508;1291;97929;-70
2022/11/09 04:41:49;;;;;;;26.20;11.50;;;;;;;7.32;74.53;99147.41;103364;1291;111105;-68
2022/11/09 04:44:17;;;;;;;23.90;10.30;;;;;;;7.30;74.60;99151.59;99612;1291;5267364;-70
2022/11/09 04:46:45;;;;;;;23.40;10.10;;;;;;;7.29;74.70;99152.55;103455;1284;97956;-70
2022/11/09 04:49:13;;;;;;;23.60;10.50;;;;;;;7.27;74.51;99153.70;103539;1291;97895;-71
2022/11/09 04:51:40;;;;;;;25.00;10.90;;;;;;;7.26;74.53;99154.82;103431;1284;111577;-69
2022/11/09 04:54:10;;;;;;;24.30;10.80;;;;;;;7.26;74.53;99156.75;103371;1290;95099;-70
2022/11/09 04:56:37;;;;;;;22.10;9.60;;;;;;;7.25;74.47;99157.52;103405;1290;108193;-72
2022/11/09 04:59:05;;;;;;;21.60;9.70;;;;;;;7.24;74.42;99156.71;103355;1290;97815;-70
2022/11/09 05:01:33;;;;;;;25.10;10.20;;;;;;;7.23;74.50;99156.05;103470;1291;97971;-74
2022/11/09 05:04:01;;;;;;;22.00;10.10;;;;;;;7.23;74.46;99157.48;103536;1291;110898;-70
2022/11/09 05:06:31;;;;;;;24.10;10.40;;;;;;;7.22;74.50;99156.48;103429;1290;97943;-71
2022/11/09 05:09:04;;;;;;;22.60;9.70;;;;;;;7.22;74.50;99158.04;103392;1292;107575;-72
2022/11/09 05:11:33;;;;;;;22.40;10.10;;;;;;;7.21;74.56;99160.23;103386;1290;97859;-71
2022/11/09 05:14:02;;;;;;;22.80;9.60;;;;;;;7.20;74.56;99156.93;103470;1290;98535;-73
2022/11/09 05:16:30;;;;;;;24.90;10.00;;;;;;;7.20;74.65;99158.73;103441;1296;111010;-73
2022/11/09 05:18:57;;;;;;;22.10;10.20;;;;;;;7.18;74.59;99158.61;103417;1292;97894;-72
2022/11/09 05:21:26;;;;;;;23.80;10.10;;;;;;;7.18;74.43;99163.91;103341;1291;107201;-74
2022/11/09 05:24:01;;;;;;;24.90;11.00;;;;;;;7.18;74.47;99169.42;103439;1296;96354;-71
2022/11/09 05:26:35;;;;;;;23.30;9.20;;;;;;;7.17;74.58;99172.81;103433;1297;97959;-72
2022/11/09 05:29:08;;;;;;;21.90;9.30;;;;;;;7.16;74.57;99179.73;103441;1298;111152;-71
2022/11/09 05:31:38;;;;;;;21.90;9.60;;;;;;;7.15;74.61;99177.29;103263;1293;98546;-72
2022/11/09 05:34:07;;;;;;;22.90;9.90;;;;;;;7.15;74.57;99180.50;103469;1298;107222;-70
2022/11/09 05:36:34;;;;;;;22.20;9.70;;;;;;;7.12;74.50;99183.98;103520;1290;97972;-72
2022/11/09 05:39:02;;;;;;;25.60;10.90;;;;;;;7.10;74.39;99183.41;103470;1298;97990;-71
2022/11/09 05:41:30;;;;;;;24.30;10.30;;;;;;;7.08;74.40;99179.67;103396;1298;111261;-72
2022/11/09 05:43:58;;;;;;;21.90;9.60;;;;;;;7.05;74.50;99178.73;103505;1293;95803;-71
2022/11/09 05:46:25;;;;;;;24.60;10.30;;;;;;;7.03;74.53;99179.42;103524;1290;107553;-71
2022/11/09 05:48:53;;;;;;;26.30;10.30;;;;;;;7.01;74.46;99182.69;103513;1291;96276;-72
2022/11/09 05:51:21;;;;;;;21.60;9.30;;;;;;;7.00;74.51;99181.83;103520;1298;97892;-72
2022/11/09 05:53:49;;;;;;;23.80;9.70;;;;;;;6.99;74.54;99182.26;103499;1290;111042;-70
2022/11/09 05:56:17;;;;;;;22.20;9.70;;;;;;;6.98;74.47;99180.38;103493;1298;97644;-72
2022/11/09 05:58:45;;;;;;;21.80;9.40;;;;;;;6.96;74.59;99176.76;103475;1290;107530;-71
2022/11/09 06:01:17;;;;;;;23.20;9.60;;;;;;;6.98;74.66;99178.59;103442;1298;97934;-70
2022/11/09 06:03:46;;;;;;;23.00;9.60;;;;;;;6.99;74.66;99176.41;103488;1290;95294;-72
2022/11/09 06:06:16;;;;;;;23.30;8.70;;;;;;;7.03;74.80;99174.30;103320;1297;110701;-75
2022/11/09 06:08:45;;;;;;;22.10;9.10;;;;;;;7.07;74.75;99174.23;103548;1290;97863;-71
2022/11/09 06:11:13;;;;;;;21.20;8.40;;;;;;;7.12;74.87;99172.22;103517;1290;107402;-75
2022/11/09 06:13:51;;;;;;;22.90;8.60;;;;;;;7.17;74.82;99167.17;103483;1291;95155;-75
2022/11/09 06:16:20;;;;;;;22.20;8.70;;;;;;;7.23;74.98;99168.04;103480;1290;96284;-73
2022/11/09 06:18:48;;;;;;;20.60;7.70;;;;;;;7.31;75.14;99161.24;103539;1290;111149;-71
2022/11/09 06:21:15;;;;;;;21.40;7.50;;;;;;;7.39;75.25;99163.45;103517;1298;98105;-71
2022/11/09 06:23:43;;;;;;;19.90;7.70;;;;;;;7.47;75.21;99160.84;103473;1290;106326;-73
2022/11/09 06:26:12;;;;;;;20.20;7.70;;;;;;;7.55;75.02;99161.98;103544;1290;97902;-73
2022/11/09 06:28:41;;;;;;;19.10;7.60;;;;;;;7.61;75.28;99166.02;103557;1294;97909;-73
2022/11/09 06:31:12;;;;;;;21.40;7.70;;;;;;;7.67;75.19;99171.52;103531;1292;109955;-71
2022/11/09 06:33:40;;;;;;;19.50;7.80;;;;;;;7.72;75.07;99170.70;103468;1294;98030;-73
2022/11/09 06:36:10;;;;;;;20.80;8.10;;;;;;;7.76;75.06;99169.59;103551;1298;107574;-72
2022/11/09 06:38:39;;;;;;;17.10;7.00;;;;;;;7.80;74.98;99171.29;104875;1291;95673;-73
2022/11/09 06:41:08;;;;;;;20.60;8.20;;;;;;;7.84;74.85;99169.44;103553;1298;97750;-71
2022/11/09 06:43:36;;;;;;;17.50;7.20;;;;;;;7.89;75.12;99165.09;103596;1298;111044;-72
2022/11/09 06:46:04;;;;;;;16.80;7.10;;;;;;;7.95;75.06;99163.48;103529;1290;97825;-72
2022/11/09 06:48:32;;;;;;;19.60;7.60;;;;;;;8.00;74.94;99160.89;103530;1298;107840;-73
2022/11/09 06:51:02;;;;;;;16.20;7.00;;;;;;;8.04;75.03;99163.48;103448;1291;95176;-72
2022/11/09 06:53:32;;;;;;;20.30;7.80;;;;;;;8.09;74.99;99160.75;103554;1291;97960;-70
2022/11/09 06:56:02;;;;;;;22.20;7.50;;;;;;;8.12;74.87;99160.01;103594;1298;110811;-71
2022/11/09 06:58:31;;;;;;;19.40;7.90;;;;;;;8.15;74.94;99155.90;103351;1293;96353;-71
2022/11/09 07:00:59;;;;;;;19.00;8.10;;;;;;;8.20;75.01;99157.92;103568;1289;106662;-71
2022/11/09 07:03:26;;;;;;;19.40;7.30;;;;;;;8.24;75.06;99156.61;103514;1290;97928;-70
2022/11/09 07:05:54;;;;;;;20.30;7.30;;;;;;;8.28;74.93;99154.63;103547;1290;97860;-71
2022/11/09 07:08:22;;;;;;;20.80;7.60;;;;;;;8.32;74.95;99156.33;103548;1290;111156;-73
2022/11/09 07:10:50;;;;;;;21.20;8.10;;;;;;;8.36;74.85;99160.14;103498;1290;97989;-71
2022/11/09 07:13:18;;;;;;;20.40;8.20;;;;;;;8.41;75.03;99157.36;103532;1297;107053;-72
2022/11/09 07:15:52;;;;;;;19.60;8.20;;;;;;;8.46;75.02;99156.34;103400;1306;97904;-72
2022/11/09 07:18:20;;;;;;;17.20;7.40;;;;;;;8.50;74.93;99151.89;103489;1290;97962;-71
2022/11/09 07:20:49;;;;;;;18.00;7.90;;;;;;;8.55;74.92;99148.19;103358;1300;110661;-71
2022/11/09 07:23:17;;;;;;;18.40;7.20;;;;;;;8.59;74.98;99146.54;103540;1291;97843;-70
2022/11/09 07:25:48;;;;;;;19.50;7.60;;;;;;;8.63;74.86;99151.77;103398;1290;108073;-71
2022/11/09 07:28:16;;;;;;;18.60;7.50;;;;;;;8.66;74.94;99151.08;103542;1294;98059;-72
2022/11/09 07:30:44;;;;;;;20.00;7.80;;;;;;;8.70;74.96;99148.69;103571;1297;98511;-72
2022/11/09 07:33:14;;;;;;;19.90;7.50;;;;;;;8.75;74.96;99153.54;103538;1290;112417;-73
2022/11/09 07:35:42;;;;;;;17.00;7.30;;;;;;;8.80;74.99;99157.27;103542;1298;95850;-72
2022/11/09 07:38:11;;;;;;;20.40;7.60;;;;;;;8.85;74.90;99159.92;103548;1298;107480;-74
2022/11/09 07:40:39;;;;;;;19.20;8.40;;;;;;;8.90;74.91;99160.67;103607;1290;97860;-76
2022/11/09 07:43:09;;;;;;;19.00;7.60;;;;;;;8.96;74.99;99161.52;103567;1291;97853;-75
2022/11/09 07:45:38;;;;;;;18.70;7.30;;;;;;;9.02;74.92;99157.61;103568;1290;113195;-76
2022/11/09 07:48:09;;;;;;;18.30;6.90;;;;;;;9.10;74.91;99157.12;103561;1298;98047;-75
2022/11/09 07:50:39;;;;;;;17.80;7.10;;;;;;;9.16;74.94;99156.86;103426;1292;107501;-74
2022/11/09 07:53:09;;;;;;;18.10;6.90;;;;;;;9.23;74.85;99153.77;103531;1291;97967;-74
2022/11/09 07:55:38;;;;;;;14.60;5.70;;;;;;;9.31;74.90;99153.64;103336;1293;97912;-75
2022/11/09 07:58:09;;;;;;;16.60;6.70;;;;;;;9.39;74.85;99153.77;103512;1291;110184;-72
2022/11/09 08:00:39;;;;;;;16.60;6.60;;;;;;;9.48;74.90;99154.65;103440;1298;97739;-72
2022/11/09 08:03:09;;;;;;;15.60;6.40;;;;;;;9.55;74.82;99155.90;103491;1297;107529;-71
2022/11/09 08:05:38;;;;;;;14.30;5.90;;;;;;;9.63;74.76;99153.47;103451;1290;97839;-74
2022/11/09 08:08:09;;;;;;;16.70;6.00;;;;;;;9.70;74.59;99152.08;103492;1290;98407;-74
2022/11/09 08:10:38;;;;;;;15.60;6.00;;;;;;;9.78;74.73;99152.11;103426;1294;111436;-73
2022/11/09 08:13:12;;;;;;;15.90;6.60;;;;;;;9.85;74.52;99153.20;103469;1290;97781;-74
2022/11/09 08:15:41;;;;;;;14.40;5.60;;;;;;;9.92;74.62;99154.88;103435;1294;107448;-73
2022/11/09 08:18:12;;;;;;;16.30;5.50;;;;;;;10.00;74.36;99156.61;103433;1298;97802;-72
2022/11/09 08:20:40;;;;;;;13.10;5.20;;;;;;;10.08;74.44;99155.38;103523;1292;99223;-72
2022/11/09 08:23:13;;;;;;;15.20;6.10;;;;;;;10.16;74.29;99153.02;103573;1298;111167;-73
2022/11/09 08:25:41;;;;;;;13.70;5.10;;;;;;;10.24;74.42;99151.59;103532;1292;97917;-73
2022/11/09 08:28:09;;;;;;;13.60;5.90;;;;;;;10.32;74.32;99149.98;103511;1291;107660;-73
2022/11/09 08:30:43;;;;;;;11.80;5.30;;;;;;;10.42;74.28;99157.47;103460;1290;97530;-72
2022/11/09 08:33:12;;;;;;;13.50;5.50;;;;;;;10.55;74.43;99153.71;103566;1290;97884;-74
2022/11/09 08:35:40;;;;;;;15.70;5.70;;;;;;;10.71;74.10;99158.08;103523;1297;111254;-76
2022/11/09 08:38:08;;;;;;;12.60;5.10;;;;;;;10.90;74.26;99154.27;103516;1291;97857;-77
2022/11/09 08:40:36;;;;;;;14.00;5.30;;;;;;;11.13;74.37;99151.15;103308;1294;107595;-76
2022/11/09 08:43:07;;;;;;;13.30;5.40;;;;;;;11.45;74.39;99151.12;103464;1292;97874;-74
2022/11/09 08:45:37;;;;;;;16.70;5.60;;;;;;;11.76;74.13;99150.91;103489;1291;98983;-74
2022/11/09 08:48:06;;;;;;;13.30;5.80;;;;;;;12.05;74.24;99154.61;103433;1298;110306;-73
2022/11/09 08:50:37;;;;;;;12.80;5.50;;;;;;;12.34;73.62;99157.33;103484;1290;97377;-72
2022/11/09 08:53:06;;;;;;;16.40;6.20;;;;;;;12.62;73.07;99153.39;103503;1290;107565;-73
2022/11/09 08:55:35;;;;;;;16.40;6.20;;;;;;;12.90;73.27;99154.31;103342;1298;97939;-74
2022/11/09 08:58:04;;;;;;;12.20;5.30;;;;;;;13.18;71.61;99154.38;103510;1296;97892;-72
2022/11/09 09:00:32;;;;;;;16.30;5.70;;;;;;;13.30;71.77;99149.52;103473;1290;110914;-76
2022/11/09 09:03:04;;;;;;;12.70;4.90;;;;;;;13.41;71.56;99146.31;103459;1290;95080;-74
2022/11/09 09:05:34;;;;;;;10.60;5.00;;;;;;;13.70;71.09;99147.33;103472;1297;107555;-73
2022/11/09 09:08:04;;;;;;;13.10;5.10;;;;;;;14.03;71.56;99148.95;103368;1290;98008;-72
2022/11/09 09:10:34;;;;;;;12.00;5.30;;;;;;;14.42;71.66;99141.16;103613;1291;97896;-74
2022/11/09 09:13:03;;;;;;;14.10;5.60;;;;;;;14.81;69.91;99137.05;103579;1298;111142;-75
2022/11/09 09:15:32;;;;;;;13.30;5.50;;;;;;;15.12;70.42;99132.84;103566;1285;97983;-73
2022/11/09 09:18:01;;;;;;;12.80;5.20;;;;;;;15.23;70.38;99126.13;103400;1290;107392;-71
2022/11/09 09:20:29;;;;;;;12.70;5.70;;;;;;;15.11;69.80;99123.89;103584;1297;95864;-71
2022/11/09 09:22:59;;;;;;;12.10;5.90;;;;;;;14.93;68.93;99132.39;103435;1294;98006;-72
2022/11/09 09:25:27;;;;;;;13.20;5.80;;;;;;;14.61;68.06;99136.13;103550;1284;110908;-72
2022/11/09 09:27:55;;;;;;;12.00;6.00;;;;;;;14.43;69.21;99138.75;103577;1290;95105;-72
2022/11/09 09:30:23;;;;;;;13.70;6.00;;;;;;;14.36;69.21;99149.02;103523;1298;107203;-73
2022/11/09 09:32:51;;;;;;;15.90;5.90;;;;;;;14.30;69.75;99145.93;103269;1307;97794;-72
2022/11/09 09:35:19;;;;;;;13.80;6.00;;;;;;;14.28;68.29;99150.23;103491;1299;97975;-73
2022/11/09 09:37:47;;;;;;;13.90;5.60;;;;;;;14.14;68.72;99150.86;103557;1296;111098;-74
2022/11/09 09:40:42;;;;;;;12.60;5.70;;;;;;;14.10;69.30;99149.58;103503;1298;95742;-74
2022/11/09 09:43:25;;;;;;;12.90;5.70;;;;;;;14.25;69.65;99152.65;103319;1293;107612;-73
2022/11/09 09:45:53;;;;;;;13.20;5.70;;;;;;;14.32;67.87;99148.27;103460;1290;95284;-73
2022/11/09 09:48:40;;;;;;;13.40;5.90;;;;;;;14.16;67.58;99147.64;103426;1296;95190;-74
2022/11/09 09:51:36;;;;;;;12.80;5.60;;;;;;;13.97;66.84;99145.20;103450;1290;111281;-73
2022/11/09 09:54:24;;;;;;;18.20;6.00;;;;;;;13.69;67.07;99139.70;103401;1298;97901;-72
2022/11/09 09:56:58;;;;;;;12.20;5.40;;;;;;;13.70;68.00;99139.48;103325;1290;107567;-73
2022/11/09 09:59:39;;;;;;;15.30;6.20;;;;;;;13.78;68.06;99140.02;103529;1291;96440;-72
2022/11/09 10:02:28;;;;;;;16.20;6.40;;;;;;;13.84;67.53;99144.31;103304;1294;95253;-72
2022/11/09 10:04:59;;;;;;;13.00;6.00;;;;;;;13.80;66.74;99143.44;103506;1284;111091;-71
2022/11/09 10:07:44;;;;;;;13.20;5.70;;;;;;;13.73;66.91;99146.16;103543;1290;97896;-75
2022/11/09 10:10:30;;;;;;;13.00;5.70;;;;;;;13.76;66.91;99147.01;103321;1296;106745;-74
2022/11/09 10:13:26;;;;;;;12.70;6.00;;;;;;;13.79;67.51;99140.14;103494;1297;97899;-75
2022/11/09 10:16:14;;;;;;;13.90;6.40;;;;;;;13.83;66.76;99139.09;103562;1298;97959;-73
2022/11/09 10:19:27;;;;;;;16.30;6.30;;;;;;;13.82;66.71;99136.87;103531;1292;111050;-74
2022/11/09 10:22:10;;;;;;;12.60;6.10;;;;;;;13.87;65.37;99141.39;103430;1299;97911;-71
2022/11/09 10:24:44;;;;;;;14.80;5.70;;;;;;;13.75;65.51;99132.79;103458;1297;107630;-73
2022/11/09 10:27:35;;;;;;;14.90;6.20;;;;;;;13.74;66.08;99135.20;103402;1290;97943;-73
2022/11/09 10:30:18;;;;;;;14.70;6.30;;;;;;;13.76;66.30;99128.48;103524;1290;97896;-72
2022/11/09 10:32:50;;;;;;;14.70;6.00;;;;;;;13.88;66.34;99125.68;103431;1293;111007;-73
2022/11/09 10:35:23;;;;;;;14.80;6.80;;;;;;;13.99;66.63;99120.75;103279;1290;97970;-71
2022/11/09 10:37:53;;;;;;;16.30;7.20;;;;;;;14.11;66.03;99123.63;103485;1290;107536;-71
2022/11/09 10:40:24;;;;;;;15.40;6.70;;;;;;;14.10;65.31;99114.86;103459;1298;97894;-73
2022/11/09 10:42:55;;;;;;;15.20;7.30;;;;;;;13.99;65.76;99116.65;103337;1293;97950;-72
2022/11/09 10:45:36;;;;;;;14.80;7.00;;;;;;;14.01;65.74;99117.78;103562;1295;111179;-71
2022/11/09 10:48:06;;;;;;;15.70;6.50;;;;;;;14.03;65.62;99119.73;103490;1290;96168;-74
2022/11/09 10:50:53;;;;;;;16.70;7.50;;;;;;;14.02;65.85;99125.95;103541;1298;107508;-69
2022/11/09 10:53:30;;;;;;;15.80;7.20;;;;;;;14.02;65.76;99126.29;103440;1298;98211;-71
2022/11/09 10:56:03;;;;;;;21.50;9.80;;;;;;;14.04;65.08;99124.48;103539;1290;97896;-71
2022/11/09 10:58:35;;;;;;;;;;;;;;;14.03;65.79;99128.34;103533;1297;110772;-70
2022/11/09 11:01:12;;;;;;;17.10;7.40;;;;;;;14.14;66.14;99126.30;103509;1291;95743;-72
2022/11/09 11:03:41;;;;;;;17.20;7.70;;;;;;;14.27;65.98;99124.44;103462;1298;107211;-71
2022/11/09 11:06:21;;;;;;;19.60;7.90;;;;;;;14.38;65.83;99125.41;103395;1291;95541;-73
2022/11/09 11:09:11;;;;;;;17.40;7.90;;;;;;;14.44;64.65;99130.30;103543;1291;97848;-71
2022/11/09 11:11:39;;;;;;;18.70;7.60;;;;;;;14.18;64.49;99126.64;103512;1296;111321;-72
2022/11/09 11:14:16;;;;;;;16.30;7.90;;;;;;;14.16;65.20;99122.90;103330;1299;97887;-72
2022/11/09 11:16:51;;;;;;;17.30;7.90;;;;;;;14.10;64.30;99116.41;103428;1297;107192;-71
2022/11/09 11:19:44;;;;;;;19.50;8.50;;;;;;;14.02;64.17;99117.51;103529;1292;97958;-72
2022/11/09 11:22:12;;;;;;;17.50;8.20;;;;;;;13.83;64.05;99110.95;103558;1292;97972;-73
2022/11/09 11:24:51;;;;;;;19.30;9.40;;;;;;;13.71;63.50;99109.77;103473;1291;111142;-73
2022/11/09 11:27:37;;;;;;;19.70;8.80;;;;;;;13.62;63.95;99114.48;103450;1290;97973;-72
2022/11/09 11:30:07;;;;;;;18.80;8.30;;;;;;;13.60;63.95;99112.35;103485;1290;107196;-71
2022/11/09 11:32:35;;;;;;;18.40;8.90;;;;;;;13.57;63.65;99109.52;103531;1290;98000;-71
2022/11/09 11:35:13;;;;;;;17.60;8.50;;;;;;;13.54;64.15;99111.38;103565;1298;97930;-71